sensor_id;sensor_type;location;lat;lon;timestamp;pressure;altitude;pressure_sealevel;temperature;humidity
19748;BME280;10032;51.386;12.516;2023-04-20T00:01:32;100541.28;;;6.29;100.00
19748;BME280;10032;51.386;12.516;2023-04-20T00:03:57;100548.91;;;6.32;100.00
19748;BME280;10032;51.386;12.516;2023-04-20T00:06:25;100537.13;;;6.33;100.00
19748;BME280;10032;51.386;12.516;2023-04-20T00:08:54;100540.63;;;6.40;100.00
19748;BME280;10032;51.386;12.516;2023-04-20T00:11:19;100535.25;;;6.33;100.00
19748;BME280;10032;51.386;12.516;2023-04-20T00:13:44;100540.66;;;6.33;100.00
19748;BME280;10032;51.386;12.516;2023-04-20T00:16:10;100531.13;;;6.31;100.00
19748;BME280;10032;51.386;12.516;2023-04-20T00:18:35;100528.66;;;6.29;100.00
19748;BME280;10032;51.386;12.516;2023-04-20T00:21:01;100529.03;;;6.33;100.00
19748;BME280;10032;51.386;12.516;2023-04-20T00:23:26;100527.19;;;6.33;100.00
19748;BME280;10032;51.386;12.516;2023-04-20T00:25:51;100525.94;;;6.36;100.00
19748;BME280;10032;51.386;12.516;2023-04-20T00:28:17;100511.66;;;6.35;100.00
19748;BME280;10032;51.386;12.516;2023-04-20T00:30:42;100514.16;;;6.30;100.00
19748;BME280;10032;51.386;12.516;2023-04-20T00:33:07;100504.03;;;6.32;100.00
19748;BME280;10032;51.386;12.516;2023-04-20T00:35:33;100508.34;;;6.33;100.00
19748;BME280;10032;51.386;12.516;2023-04-20T00:37:58;100501.06;;;6.40;100.00
19748;BME280;10032;51.386;12.516;2023-04-20T00:40:24;100502.91;;;6.46;100.00
19748;BME280;10032;51.386;12.516;2023-04-20T00:42:49;100507.69;;;6.44;100.00
19748;BME280;10032;51.386;12.516;2023-04-20T00:45:15;100506.25;;;6.42;100.00
19748;BME280;10032;51.386;12.516;2023-04-20T00:47:40;100510.16;;;6.46;100.00
19748;BME280;10032;51.386;12.516;2023-04-20T00:50:06;100510.81;;;6.41;100.00
19748;BME280;10032;51.386;12.516;2023-04-20T00:52:32;100502.50;;;6.43;100.00
19748;BME280;10032;51.386;12.516;2023-04-20T00:54:58;100502.56;;;6.36;100.00
19748;BME280;10032;51.386;12.516;2023-04-20T00:57:25;100503.38;;;6.37;100.00
19748;BME280;10032;51.386;12.516;2023-04-20T00:59:50;100510.19;;;6.39;100.00
19748;BME280;10032;51.386;12.516;2023-04-20T01:02:16;100504.81;;;6.39;100.00
19748;BME280;10032;51.386;12.516;2023-04-20T01:04:44;100513.75;;;6.27;100.00
19748;BME280;10032;51.386;12.516;2023-04-20T01:07:09;100499.91;;;6.30;100.00
19748;BME280;10032;51.386;12.516;2023-04-20T01:09:38;100499.25;;;6.34;100.00
19748;BME280;10032;51.386;12.516;2023-04-20T01:12:04;100500.69;;;6.37;100.00
19748;BME280;10032;51.386;12.516;2023-04-20T01:14:30;100500.28;;;6.33;100.00
19748;BME280;10032;51.386;12.516;2023-04-20T01:16:56;100498.47;;;6.27;100.00
19748;BME280;10032;51.386;12.516;2023-04-20T01:19:21;100497.78;;;6.38;100.00
19748;BME280;10032;51.386;12.516;2023-04-20T01:21:47;100493.00;;;6.40;100.00
19748;BME280;10032;51.386;12.516;2023-04-20T01:24:12;100501.91;;;6.41;100.00
19748;BME280;10032;51.386;12.516;2023-04-20T01:26:38;100490.75;;;6.37;100.00
19748;BME280;10032;51.386;12.516;2023-04-20T01:29:03;100495.13;;;6.32;100.00
19748;BME280;10032;51.386;12.516;2023-04-20T01:31:29;100490.78;;;6.31;100.00
19748;BME280;10032;51.386;12.516;2023-04-20T01:33:55;100488.94;;;6.31;100.00
19748;BME280;10032;51.386;12.516;2023-04-20T01:36:20;100482.69;;;6.37;100.00
19748;BME280;10032;51.386;12.516;2023-04-20T01:38:46;100486.84;;;6.33;100.00
19748;BME280;10032;51.386;12.516;2023-04-20T01:41:11;100480.19;;;6.36;100.00
19748;BME280;10032;51.386;12.516;2023-04-20T01:43:37;100482.69;;;6.37;100.00
19748;BME280;10032;51.386;12.516;2023-04-20T01:46:03;100489.09;;;6.36;100.00
19748;BME280;10032;51.386;12.516;2023-04-20T01:48:29;100482.69;;;6.37;100.00
19748;BME280;10032;51.386;12.516;2023-04-20T01:50:55;100479.81;;;6.32;100.00
19748;BME280;10032;51.386;12.516;2023-04-20T01:53:20;100476.06;;;6.33;100.00
19748;BME280;10032;51.386;12.516;2023-04-20T01:55:46;100477.31;;;6.37;100.00
19748;BME280;10032;51.386;12.516;2023-04-20T01:58:12;100475.47;;;6.31;100.00
19748;BME280;10032;51.386;12.516;2023-04-20T02:00:37;100476.28;;;6.32;100.00
19748;BME280;10032;51.386;12.516;2023-04-20T02:03:03;100473.16;;;6.41;100.00
19748;BME280;10032;51.386;12.516;2023-04-20T02:05:28;100481.22;;;6.41;100.00
19748;BME280;10032;51.386;12.516;2023-04-20T02:07:54;100481.63;;;6.38;100.00
19748;BME280;10032;51.386;12.516;2023-04-20T02:10:19;100490.75;;;6.37;100.00
19748;BME280;10032;51.386;12.516;2023-04-20T02:12:44;100482.28;;;6.34;100.00
19748;BME280;10032;51.386;12.516;2023-04-20T02:15:10;100481.44;;;6.40;100.00
19748;BME280;10032;51.386;12.516;2023-04-20T02:17:35;100482.22;;;6.47;100.00
19748;BME280;10032;51.386;12.516;2023-04-20T02:20:04;100485.94;;;6.46;100.00
19748;BME280;10032;51.386;12.516;2023-04-20T02:22:33;100482.41;;;6.52;100.00
19748;BME280;10032;51.386;12.516;2023-04-20T02:25:08;100477.66;;;6.47;100.00
19748;BME280;10032;51.386;12.516;2023-04-20T02:27:34;100481.22;;;6.41;100.00
19748;BME280;10032;51.386;12.516;2023-04-20T02:30:00;100481.22;;;6.41;100.00
19748;BME280;10032;51.386;12.516;2023-04-20T02:32:25;100483.50;;;6.38;100.00
19748;BME280;10032;51.386;12.516;2023-04-20T02:34:51;100480.00;;;6.37;100.00
19748;BME280;10032;51.386;12.516;2023-04-20T02:37:16;100491.34;;;6.39;100.00
19748;BME280;10032;51.386;12.516;2023-04-20T02:39:41;100485.97;;;6.39;100.00
19748;BME280;10032;51.386;12.516;2023-04-20T02:42:07;100484.94;;;6.40;100.00
19748;BME280;10032;51.386;12.516;2023-04-20T02:44:32;100483.47;;;6.44;100.00
19748;BME280;10032;51.386;12.516;2023-04-20T02:46:58;100484.72;;;6.42;100.00
19748;BME280;10032;51.386;12.516;2023-04-20T02:49:23;100487.63;;;6.40;100.00
19748;BME280;10032;51.386;12.516;2023-04-20T02:51:48;100487.22;;;6.37;100.00
19748;BME280;10032;51.386;12.516;2023-04-20T02:54:14;100490.56;;;6.39;100.00
19748;BME280;10032;51.386;12.516;2023-04-20T02:56:39;100484.31;;;6.45;100.00
19748;BME280;10032;51.386;12.516;2023-04-20T02:59:05;100489.91;;;6.37;100.00
19748;BME280;10032;51.386;12.516;2023-04-20T03:01:30;100488.06;;;6.37;100.00
19748;BME280;10032;51.386;12.516;2023-04-20T03:03:56;100476.91;;;6.34;100.00
19748;BME280;10032;51.386;12.516;2023-04-20T03:06:22;100476.84;;;6.40;100.00
19748;BME280;10032;51.386;12.516;2023-04-20T03:08:47;100481.03;;;6.36;100.00
19748;BME280;10032;51.386;12.516;2023-04-20T03:11:12;100477.91;;;6.39;100.00
19748;BME280;10032;51.386;12.516;2023-04-20T03:13:38;100480.19;;;6.36;100.00
19748;BME280;10032;51.386;12.516;2023-04-20T03:16:04;100480.19;;;6.42;100.00
19748;BME280;10032;51.386;12.516;2023-04-20T03:18:30;100477.69;;;6.41;100.00
19748;BME280;10032;51.386;12.516;2023-04-20T03:20:56;100477.03;;;6.45;100.00
19748;BME280;10032;51.386;12.516;2023-04-20T03:23:21;100480.19;;;6.42;100.00
19748;BME280;10032;51.386;12.516;2023-04-20T03:25:46;100475.88;;;6.35;100.00
19748;BME280;10032;51.386;12.516;2023-04-20T03:28:14;100469.41;;;6.42;100.00
19748;BME280;10032;51.386;12.516;2023-04-20T03:30:40;100476.06;;;6.40;100.00
19748;BME280;10032;51.386;12.516;2023-04-20T03:33:05;100469.66;;;6.34;100.00
19748;BME280;10032;51.386;12.516;2023-04-20T03:35:30;100470.28;;;6.36;100.00
19748;BME280;10032;51.386;12.516;2023-04-20T03:37:56;100476.44;;;6.43;100.00
19748;BME280;10032;51.386;12.516;2023-04-20T03:40:21;100473.16;;;6.41;100.00
19748;BME280;10032;51.386;12.516;2023-04-20T03:42:47;100476.25;;;6.38;100.00
19748;BME280;10032;51.386;12.516;2023-04-20T03:45:12;100479.81;;;6.32;100.00
19748;BME280;10032;51.386;12.516;2023-04-20T03:47:37;100478.16;;;6.31;100.00
19748;BME280;10032;51.386;12.516;2023-04-20T03:50:03;100479.59;;;6.34;100.00
19748;BME280;10032;51.386;12.516;2023-04-20T03:52:29;100479.81;;;6.32;100.00
19748;BME280;10032;51.386;12.516;2023-04-20T03:54:54;100481.03;;;6.36;100.00
19748;BME280;10032;51.386;12.516;2023-04-20T03:57:20;100484.75;;;6.35;100.00
19748;BME280;10032;51.386;12.516;2023-04-20T03:59:45;100481.28;;;6.28;100.00
19748;BME280;10032;51.386;12.516;2023-04-20T04:02:10;100483.53;;;6.31;100.00
19748;BME280;10032;51.386;12.516;2023-04-20T04:04:38;100485.59;;;6.36;100.00
19748;BME280;10032;51.386;12.516;2023-04-20T04:07:03;100486.22;;;6.31;100.00
19748;BME280;10032;51.386;12.516;2023-04-20T04:09:28;100481.44;;;6.33;100.00
19748;BME280;10032;51.386;12.516;2023-04-20T04:11:54;100482.72;;;6.24;100.00
19748;BME280;10032;51.386;12.516;2023-04-20T04:14:19;100479.03;;;6.19;100.00
19748;BME280;10032;51.386;12.516;2023-04-20T04:16:45;100481.16;;;6.10;100.00
19748;BME280;10032;51.386;12.516;2023-04-20T04:19:10;100489.03;;;5.99;100.00
19748;BME280;10032;51.386;12.516;2023-04-20T04:21:36;100480.78;;;5.94;100.00
19748;BME280;10032;51.386;12.516;2023-04-20T04:24:01;100484.91;;;5.90;100.00
19748;BME280;10032;51.386;12.516;2023-04-20T04:26:28;100492.38;;;5.81;100.00
19748;BME280;10032;51.386;12.516;2023-04-20T04:28:56;100487.81;;;5.75;100.00
19748;BME280;10032;51.386;12.516;2023-04-20T04:31:22;100494.03;;;5.69;100.00
19748;BME280;10032;51.386;12.516;2023-04-20T04:33:48;100502.09;;;5.69;100.00
19748;BME280;10032;51.386;12.516;2023-04-20T04:36:14;100500.03;;;5.71;100.00
19748;BME280;10032;51.386;12.516;2023-04-20T04:38:40;100502.72;;;5.78;100.00
19748;BME280;10032;51.386;12.516;2023-04-20T04:41:11;100500.66;;;5.73;100.00
19748;BME280;10032;51.386;12.516;2023-04-20T04:43:38;100504.34;;;5.72;100.00
19748;BME280;10032;51.386;12.516;2023-04-20T04:46:07;100505.19;;;5.73;100.00
19748;BME280;10032;51.386;12.516;2023-04-20T04:48:37;100507.06;;;5.85;100.00
19748;BME280;10032;51.386;12.516;2023-04-20T04:51:04;100516.13;;;5.91;100.00
19748;BME280;10032;51.386;12.516;2023-04-20T04:53:31;100510.56;;;5.92;100.00
19748;BME280;10032;51.386;12.516;2023-04-20T04:55:56;100514.50;;;5.90;100.00
19748;BME280;10032;51.386;12.516;2023-04-20T04:58:21;100514.69;;;5.95;100.00
19748;BME280;10032;51.386;12.516;2023-04-20T05:00:47;100515.53;;;5.95;100.00
19748;BME280;10032;51.386;12.516;2023-04-20T05:03:12;100518.00;;;5.97;100.00
19748;BME280;10032;51.386;12.516;2023-04-20T05:05:38;100520.69;;;5.97;100.00
19748;BME280;10032;51.386;12.516;2023-04-20T05:08:03;100528.72;;;6.03;100.00
19748;BME280;10032;51.386;12.516;2023-04-20T05:10:29;100521.50;;;6.04;100.00
19748;BME280;10032;51.386;12.516;2023-04-20T05:12:55;100522.34;;;5.98;100.00
19748;BME280;10032;51.386;12.516;2023-04-20T05:15:23;100523.38;;;5.97;100.00
19748;BME280;10032;51.386;12.516;2023-04-20T05:17:48;100515.72;;;6.00;100.00
19748;BME280;10032;51.386;12.516;2023-04-20T05:20:14;100525.03;;;6.04;100.00
19748;BME280;10032;51.386;12.516;2023-04-20T05:22:39;100528.13;;;6.01;100.00
19748;BME280;10032;51.386;12.516;2023-04-20T05:25:05;100521.75;;;5.89;100.00
19748;BME280;10032;51.386;12.516;2023-04-20T05:27:32;100533.31;;;5.96;100.00
19748;BME280;10032;51.386;12.516;2023-04-20T05:29:57;100530.81;;;6.08;100.00
19748;BME280;10032;51.386;12.516;2023-04-20T05:32:23;100536.13;;;6.14;100.00
19748;BME280;10032;51.386;12.516;2023-04-20T05:34:48;100540.25;;;6.23;100.00
19748;BME280;10032;51.386;12.516;2023-04-20T05:37:14;100551.88;;;6.24;100.00
19748;BME280;10032;51.386;12.516;2023-04-20T05:39:40;100545.84;;;6.28;100.00
19748;BME280;10032;51.386;12.516;2023-04-20T05:42:05;100544.38;;;6.32;100.00
19748;BME280;10032;51.386;12.516;2023-04-20T05:44:30;100550.38;;;6.34;100.00
19748;BME280;10032;51.386;12.516;2023-04-20T05:46:58;100556.56;;;6.41;100.00
19748;BME280;10032;51.386;12.516;2023-04-20T05:49:23;100562.47;;;6.56;100.00
19748;BME280;10032;51.386;12.516;2023-04-20T05:51:49;100567.06;;;6.49;100.00
19748;BME280;10032;51.386;12.516;2023-04-20T05:54:15;100570.81;;;6.42;100.00
19748;BME280;10032;51.386;12.516;2023-04-20T05:56:40;100570.38;;;6.51;100.00
19748;BME280;10032;51.386;12.516;2023-04-20T05:59:06;100572.66;;;6.54;100.00
19748;BME280;10032;51.386;12.516;2023-04-20T06:01:31;100584.88;;;6.50;100.00
19748;BME280;10032;51.386;12.516;2023-04-20T06:03:57;100588.63;;;6.43;100.00
19748;BME280;10032;51.386;12.516;2023-04-20T06:06:22;100583.25;;;6.43;100.00
19748;BME280;10032;51.386;12.516;2023-04-20T06:08:47;100583.25;;;6.43;100.00
19748;BME280;10032;51.386;12.516;2023-04-20T06:11:15;100578.53;;;6.32;100.00
19748;BME280;10032;51.386;12.516;2023-04-20T06:13:40;100581.59;;;6.35;100.00
19748;BME280;10032;51.386;12.516;2023-04-20T06:16:06;100579.09;;;6.40;100.00
19748;BME280;10032;51.386;12.516;2023-04-20T06:18:33;100582.25;;;6.37;100.00
19748;BME280;10032;51.386;12.516;2023-04-20T06:20:59;100584.00;;;6.56;100.00
19748;BME280;10032;51.386;12.516;2023-04-20T06:23:26;100587.75;;;6.55;100.00
19748;BME280;10032;51.386;12.516;2023-04-20T06:25:51;100587.63;;;6.37;100.00
19748;BME280;10032;51.386;12.516;2023-04-20T06:28:17;100594.41;;;6.46;100.00
19748;BME280;10032;51.386;12.516;2023-04-20T06:30:42;100595.03;;;6.48;100.00
19748;BME280;10032;51.386;12.516;2023-04-20T06:33:07;100586.97;;;6.42;100.00
19748;BME280;10032;51.386;12.516;2023-04-20T06:35:33;100586.78;;;6.43;100.00
19748;BME280;10032;51.386;12.516;2023-04-20T06:37:58;100596.50;;;6.38;100.00
19748;BME280;10032;51.386;12.516;2023-04-20T06:40:27;100589.06;;;6.33;100.00
19748;BME280;10032;51.386;12.516;2023-04-20T06:42:52;100599.84;;;6.33;100.00
19748;BME280;10032;51.386;12.516;2023-04-20T06:45:18;100601.69;;;6.33;100.00
19748;BME280;10032;51.386;12.516;2023-04-20T06:47:44;100605.22;;;6.40;100.00
19748;BME280;10032;51.386;12.516;2023-04-20T06:50:10;100605.25;;;6.20;100.00
19748;BME280;10032;51.386;12.516;2023-04-20T06:52:36;100593.25;;;6.23;100.00
19748;BME280;10032;51.386;12.516;2023-04-20T06:55:02;100596.78;;;6.10;100.00
19748;BME280;10032;51.386;12.516;2023-04-20T06:57:27;100596.16;;;6.08;100.00
19748;BME280;10032;51.386;12.516;2023-04-20T06:59:53;100609.59;;;6.21;100.00
19748;BME280;10032;51.386;12.516;2023-04-20T07:02:18;100605.22;;;6.33;100.00
19748;BME280;10032;51.386;12.516;2023-04-20T07:04:43;100604.81;;;6.36;100.00
19748;BME280;10032;51.386;12.516;2023-04-20T07:07:09;100603.56;;;6.26;100.00
19748;BME280;10032;51.386;12.516;2023-04-20T07:09:34;100598.59;;;6.29;100.00
19748;BME280;10032;51.386;12.516;2023-04-20T07:12:00;100609.34;;;6.42;100.00
19748;BME280;10032;51.386;12.516;2023-04-20T07:14:26;100606.97;;;6.65;100.00
19748;BME280;10032;51.386;12.516;2023-04-20T07:16:52;100591.63;;;6.72;100.00
19748;BME280;10032;51.386;12.516;2023-04-20T07:19:18;100589.69;;;6.86;100.00
19748;BME280;10032;51.386;12.516;2023-04-20T07:21:43;100591.22;;;7.13;100.00
19748;BME280;10032;51.386;12.516;2023-04-20T07:24:09;100586.91;;;7.36;100.00
19748;BME280;10032;51.386;12.516;2023-04-20T07:26:34;100581.66;;;7.41;100.00
19748;BME280;10032;51.386;12.516;2023-04-20T07:28:59;100588.09;;;7.40;100.00
19748;BME280;10032;51.386;12.516;2023-04-20T07:31:25;100584.38;;;7.41;100.00
19748;BME280;10032;51.386;12.516;2023-04-20T07:33:50;100580.56;;;7.49;100.00
19748;BME280;10032;51.386;12.516;2023-04-20T07:36:16;100584.38;;;7.41;100.00
19748;BME280;10032;51.386;12.516;2023-04-20T07:38:41;100590.59;;;7.42;100.00
19748;BME280;10032;51.386;12.516;2023-04-20T07:41:10;100588.38;;;7.32;100.00
19748;BME280;10032;51.386;12.516;2023-04-20T07:43:35;100591.53;;;7.54;100.00
19748;BME280;10032;51.386;12.516;2023-04-20T07:46:01;100595.84;;;7.61;100.00
19748;BME280;10032;51.386;12.516;2023-04-20T07:48:27;100596.66;;;7.62;100.00
19748;BME280;10032;51.386;12.516;2023-04-20T07:50:52;100605.41;;;8.06;100.00
19748;BME280;10032;51.386;12.516;2023-04-20T07:53:17;100609.22;;;7.99;100.00
19748;BME280;10032;51.386;12.516;2023-04-20T07:55:43;100604.47;;;8.19;100.00
19748;BME280;10032;51.386;12.516;2023-04-20T07:58:08;100603.97;;;8.28;100.00
19748;BME280;10032;51.386;12.516;2023-04-20T08:00:34;100611.84;;;8.30;100.00
19748;BME280;10032;51.386;12.516;2023-04-20T08:02:59;100615.44;;;8.24;100.00
19748;BME280;10032;51.386;12.516;2023-04-20T08:05:25;100605.25;;;8.26;100.00
19748;BME280;10032;51.386;12.516;2023-04-20T08:07:50;100612.63;;;8.12;100.00
19748;BME280;10032;51.386;12.516;2023-04-20T08:10:16;100611.06;;;7.98;100.00
19748;BME280;10032;51.386;12.516;2023-04-20T08:12:41;100604.88;;;8.16;100.00
19748;BME280;10032;51.386;12.516;2023-04-20T08:15:07;100603.22;;;8.39;100.00
19748;BME280;10032;51.386;12.516;2023-04-20T08:17:33;100594.31;;;8.57;100.00
19748;BME280;10032;51.386;12.516;2023-04-20T08:19:58;100588.50;;;8.71;100.00
19748;BME280;10032;51.386;12.516;2023-04-20T08:22:24;100588.97;;;8.68;100.00
19748;BME280;10032;51.386;12.516;2023-04-20T08:24:54;100584.13;;;8.88;100.00
19748;BME280;10032;51.386;12.516;2023-04-20T08:27:20;100584.06;;;8.95;100.00
19748;BME280;10032;51.386;12.516;2023-04-20T08:29:45;100590.78;;;9.33;100.00
19748;BME280;10032;51.386;12.516;2023-04-20T08:32:10;100586.22;;;9.45;100.00
19748;BME280;10032;51.386;12.516;2023-04-20T08:34:37;100585.91;;;9.53;100.00
19748;BME280;10032;51.386;12.516;2023-04-20T08:37:03;100589.22;;;9.67;100.00
19748;BME280;10032;51.386;12.516;2023-04-20T08:39:28;100586.69;;;10.06;100.00
19748;BME280;10032;51.386;12.516;2023-04-20T08:41:55;100588.91;;;10.09;100.00
19748;BME280;10032;51.386;12.516;2023-04-20T08:44:22;100594.03;;;9.76;100.00
19748;BME280;10032;51.386;12.516;2023-04-20T08:46:49;100605.28;;;9.50;100.00
19748;BME280;10032;51.386;12.516;2023-04-20T08:49:15;100597.88;;;9.57;100.00
19748;BME280;10032;51.386;12.516;2023-04-20T08:51:42;100587.94;;;9.69;100.00
19748;BME280;10032;51.386;12.516;2023-04-20T08:54:09;100584.16;;;9.70;100.00
19748;BME280;10032;51.386;12.516;2023-04-20T08:56:43;100584.34;;;9.57;100.00
19748;BME280;10032;51.386;12.516;2023-04-20T08:59:09;100578.03;;;9.75;100.00
19748;BME280;10032;51.386;12.516;2023-04-20T09:01:38;100579.00;;;10.26;100.00
19748;BME280;10032;51.386;12.516;2023-04-20T09:04:24;100579.97;;;10.43;100.00
19748;BME280;10032;51.386;12.516;2023-04-20T09:06:52;100578.38;;;10.98;100.00
19748;BME280;10032;51.386;12.516;2023-04-20T09:09:20;100584.91;;;10.86;100.00
19748;BME280;10032;51.386;12.516;2023-04-20T09:11:46;100593.34;;;10.61;100.00
19748;BME280;10032;51.386;12.516;2023-04-20T09:14:13;100598.09;;;10.31;100.00
19748;BME280;10032;51.386;12.516;2023-04-20T09:16:50;100602.47;;;10.32;100.00
19748;BME280;10032;51.386;12.516;2023-04-20T09:19:26;100598.66;;;10.45;100.00
19748;BME280;10032;51.386;12.516;2023-04-20T09:21:54;100602.75;;;10.70;100.00
19748;BME280;10032;51.386;12.516;2023-04-20T09:24:22;100600.28;;;11.08;100.00
19748;BME280;10032;51.386;12.516;2023-04-20T09:26:47;100600.84;;;11.38;100.00
19748;BME280;10032;51.386;12.516;2023-04-20T09:29:18;100601.75;;;11.44;100.00
19748;BME280;10032;51.386;12.516;2023-04-20T09:31:45;100597.44;;;11.31;100.00
19748;BME280;10032;51.386;12.516;2023-04-20T09:34:11;100599.53;;;11.13;100.00
19748;BME280;10032;51.386;12.516;2023-04-20T09:36:38;100601.03;;;10.92;100.00
19748;BME280;10032;51.386;12.516;2023-04-20T09:39:09;100595.63;;;10.92;100.00
19748;BME280;10032;51.386;12.516;2023-04-20T09:41:35;100593.09;;;10.74;100.00
19748;BME280;10032;51.386;12.516;2023-04-20T09:44:02;100599.16;;;10.93;100.00
19748;BME280;10032;51.386;12.516;2023-04-20T09:46:29;100588.31;;;10.93;100.00
19748;BME280;10032;51.386;12.516;2023-04-20T09:48:57;100588.66;;;10.96;100.00
19748;BME280;10032;51.386;12.516;2023-04-20T09:51:27;100592.72;;;11.10;100.00
19748;BME280;10032;51.386;12.516;2023-04-20T09:53:55;100599.88;;;11.44;100.00
19748;BME280;10032;51.386;12.516;2023-04-20T09:56:20;100599.88;;;11.44;100.00
19748;BME280;10032;51.386;12.516;2023-04-20T09:58:46;100589.50;;;11.41;100.00
19748;BME280;10032;51.386;12.516;2023-04-20T10:01:12;100594.16;;;11.29;100.00
19748;BME280;10032;51.386;12.516;2023-04-20T10:03:40;100598.94;;;11.22;100.00
19748;BME280;10032;51.386;12.516;2023-04-20T10:06:21;100601.94;;;11.54;100.00
19748;BME280;10032;51.386;12.516;2023-04-20T10:08:46;100606.63;;;11.42;100.00
19748;BME280;10032;51.386;12.516;2023-04-20T10:13:58;100600.44;;;11.74;100.00
19748;BME280;10032;51.386;12.516;2023-04-20T10:16:25;100598.28;;;11.60;100.00
19748;BME280;10032;51.386;12.516;2023-04-20T10:19:02;100603.94;;;11.30;100.00
19748;BME280;10032;51.386;12.516;2023-04-20T10:21:31;100612.69;;;11.60;100.00
19748;BME280;10032;51.386;12.516;2023-04-20T10:23:58;100598.78;;;12.06;100.00
19748;BME280;10032;51.386;12.516;2023-04-20T10:26:37;100593.41;;;12.28;100.00
19748;BME280;10032;51.386;12.516;2023-04-20T10:29:03;100597.72;;;12.07;100.00
19748;BME280;10032;51.386;12.516;2023-04-20T10:31:38;100607.66;;;11.69;100.00
19748;BME280;10032;51.386;12.516;2023-04-20T10:34:05;100595.34;;;11.50;100.00
19748;BME280;10032;51.386;12.516;2023-04-20T10:36:34;100593.44;;;11.34;100.00
19748;BME280;10032;51.386;12.516;2023-04-20T10:39:15;100588.84;;;11.34;100.00
19748;BME280;10032;51.386;12.516;2023-04-20T10:41:54;100585.19;;;11.29;100.00
19748;BME280;10032;51.386;12.516;2023-04-20T10:44:23;100576.09;;;11.07;100.00
19748;BME280;10032;51.386;12.516;2023-04-20T10:46:51;100577.91;;;11.01;100.00
19748;BME280;10032;51.386;12.516;2023-04-20T10:49:17;100573.06;;;11.03;100.00
19748;BME280;10032;51.386;12.516;2023-04-20T10:51:50;100563.28;;;11.02;100.00
19748;BME280;10032;51.386;12.516;2023-04-20T10:54:16;100566.56;;;11.04;100.00
19748;BME280;10032;51.386;12.516;2023-04-20T10:56:49;100570.97;;;10.94;100.00
19748;BME280;10032;51.386;12.516;2023-04-20T10:59:20;100572.06;;;10.93;100.00
19748;BME280;10032;51.386;12.516;2023-04-20T11:01:47;100562.41;;;10.85;100.00
19748;BME280;10032;51.386;12.516;2023-04-20T11:04:13;100560.47;;;10.97;100.00
19748;BME280;10032;51.386;12.516;2023-04-20T11:06:40;100561.72;;;10.78;100.00
19748;BME280;10032;51.386;12.516;2023-04-20T11:09:19;100560.06;;;10.77;100.00
19748;BME280;10032;51.386;12.516;2023-04-20T11:11:45;100561.66;;;10.62;100.00
19748;BME280;10032;51.386;12.516;2023-04-20T11:14:11;100565.63;;;10.71;100.00
19748;BME280;10032;51.386;12.516;2023-04-20T11:16:37;100556.81;;;10.64;100.00
19748;BME280;10032;51.386;12.516;2023-04-20T11:19:04;100557.88;;;10.63;100.00
19748;BME280;10032;51.386;12.516;2023-04-20T11:21:40;100555.53;;;10.55;100.00
19748;BME280;10032;51.386;12.516;2023-04-20T11:24:17;100546.38;;;10.44;100.00
19748;BME280;10032;51.386;12.516;2023-04-20T11:26:44;100558.53;;;10.30;100.00
19748;BME280;10032;51.386;12.516;2023-04-20T11:29:09;100553.38;;;10.17;100.00
19748;BME280;10032;51.386;12.516;2023-04-20T11:31:35;100551.94;;;10.26;100.00
19748;BME280;10032;51.386;12.516;2023-04-20T11:34:01;100555.13;;;10.23;100.00
19748;BME280;10032;51.386;12.516;2023-04-20T11:36:28;100556.31;;;10.16;100.00
19748;BME280;10032;51.386;12.516;2023-04-20T11:39:06;100554.56;;;10.10;100.00
19748;BME280;10032;51.386;12.516;2023-04-20T11:41:32;100557.22;;;9.98;100.00
19748;BME280;10032;51.386;12.516;2023-04-20T11:43:57;100556.28;;;9.81;100.00
19748;BME280;10032;51.386;12.516;2023-04-20T11:46:22;100546.28;;;9.70;100.00
19748;BME280;10032;51.386;12.516;2023-04-20T11:48:48;100549.22;;;9.69;100.00
19748;BME280;10032;51.386;12.516;2023-04-20T11:51:14;100541.34;;;9.67;100.00
19748;BME280;10032;51.386;12.516;2023-04-20T11:53:39;100553.78;;;9.68;100.00
19748;BME280;10032;51.386;12.516;2023-04-20T11:56:05;100546.38;;;9.64;100.00
19748;BME280;10032;51.386;12.516;2023-04-20T11:58:31;100547.47;;;9.74;100.00
19748;BME280;10032;51.386;12.516;2023-04-20T12:00:56;100544.28;;;9.77;100.00
19748;BME280;10032;51.386;12.516;2023-04-20T12:03:22;100544.66;;;9.92;100.00
19748;BME280;10032;51.386;12.516;2023-04-20T12:05:47;100536.75;;;9.68;100.00
19748;BME280;10032;51.386;12.516;2023-04-20T12:08:12;100539.09;;;9.76;100.00
19748;BME280;10032;51.386;12.516;2023-04-20T12:10:38;100532.50;;;9.83;100.00
19748;BME280;10032;51.386;12.516;2023-04-20T12:13:04;100532.06;;;9.98;100.00
19748;BME280;10032;51.386;12.516;2023-04-20T12:15:30;100530.28;;;10.03;100.00
19748;BME280;10032;51.386;12.516;2023-04-20T12:17:55;100521.47;;;9.96;100.00
19748;BME280;10032;51.386;12.516;2023-04-20T12:20:21;100522.41;;;10.13;100.00
19748;BME280;10032;51.386;12.516;2023-04-20T12:22:46;100520.16;;;10.10;100.00
19748;BME280;10032;51.386;12.516;2023-04-20T12:25:12;100523.25;;;10.14;100.00
19748;BME280;10032;51.386;12.516;2023-04-20T12:27:38;100526.78;;;10.03;100.00
19748;BME280;10032;51.386;12.516;2023-04-20T12:30:04;100524.41;;;10.18;100.00
19748;BME280;10032;51.386;12.516;2023-04-20T12:32:29;100525.97;;;10.14;100.00
19748;BME280;10032;51.386;12.516;2023-04-20T12:34:55;100523.72;;;10.22;100.00
19748;BME280;10032;51.386;12.516;2023-04-20T12:37:20;100524.28;;;10.13;100.00